Time;durP1;ratioP1;P1;durP2;ratioP2;P2;SDS_P1;SDS_P2;PMS_P1;PMS_P2;Temp;Humidity;BMP_temperature;BMP_pressure;BME280_temperature;BME280_humidity;BME280_pressure;Samples;Min_cycle;Max_cycle;Signal;HPM_P1;HPM_P2
2023/08/04 00:02:05;;;;;;;2.83;1.52;;;16.10;99.90;;;;;;5035548;28;20037;-58
2023/08/04 00:04:30;;;;;;;4.38;1.65;;;16.10;99.90;;;;;;5035549;28;20133;-58
2023/08/04 00:06:56;;;;;;;5.75;1.65;;;16.40;99.90;;;;;;5035757;28;20243;-58
2023/08/04 00:09:22;;;;;;;4.57;1.38;;;16.10;99.90;;;;;;5035688;28;20535;-59
2023/08/04 00:11:47;;;;;;;5.53;1.63;;;16.10;99.90;;;;;;5035732;28;20370;-58
2023/08/04 00:14:13;;;;;;;3.78;1.40;;;16.10;99.90;;;;;;5035368;28;20047;-60
2023/08/04 00:16:39;;;;;;;4.80;1.92;;;16.10;99.90;;;;;;5035586;28;20042;-58
2023/08/04 00:19:04;;;;;;;3.80;1.60;;;16.60;99.90;;;;;;5035579;28;20040;-58
2023/08/04 00:21:30;;;;;;;7.32;1.75;;;16.10;99.90;;;;;;5035366;28;20041;-58
2023/08/04 00:23:58;;;;;;;6.40;1.55;;;16.80;99.90;;;;;;5035431;28;20041;-59
2023/08/04 00:26:25;;;;;;;5.45;1.90;;;16.70;99.90;;;;;;5033908;28;20397;-58
2023/08/04 00:28:50;;;;;;;4.22;1.40;;;16.10;99.90;;;;;;5035135;28;20502;-59
2023/08/04 00:31:16;;;;;;;5.45;1.88;;;16.10;99.90;;;;;;5035309;28;20238;-59
2023/08/04 00:33:41;;;;;;;5.22;1.58;;;16.10;99.90;;;;;;5035341;28;20392;-61
2023/08/04 00:36:07;;;;;;;8.52;2.13;;;16.10;99.90;;;;;;5035276;28;20044;-61
2023/08/04 00:38:32;;;;;;;4.53;1.65;;;16.10;99.90;;;;;;5035163;28;20045;-61
2023/08/04 00:40:58;;;;;;;4.07;1.60;;;16.10;99.90;;;;;;5035225;28;20497;-61
2023/08/04 00:43:23;;;;;;;4.90;1.90;;;16.10;99.90;;;;;;5034976;28;20041;-61
2023/08/04 00:45:49;;;;;;;7.20;1.77;;;16.30;99.90;;;;;;5035045;28;20086;-61
2023/08/04 00:48:15;;;;;;;8.27;1.63;;;16.10;99.90;;;;;;5035012;28;20401;-61
2023/08/04 00:50:41;;;;;;;6.13;1.70;;;16.10;99.90;;;;;;5034975;28;20040;-61
2023/08/04 00:53:09;;;;;;;3.38;1.58;;;16.10;99.90;;;;;;5035017;28;20049;-61
2023/08/04 00:55:35;;;;;;;7.72;1.27;;;16.00;99.90;;;;;;5034888;28;20044;-62
2023/08/04 00:58:01;;;;;;;6.88;1.73;;;16.00;99.90;;;;;;5034851;28;20041;-61
2023/08/04 01:00:27;;;;;;;4.35;1.40;;;16.00;99.90;;;;;;5034728;28;20045;-61
2023/08/04 01:02:52;;;;;;;3.22;1.40;;;16.00;99.90;;;;;;5033524;28;20037;-61
2023/08/04 01:05:18;;;;;;;3.13;1.58;;;16.10;99.90;;;;;;5033475;28;20505;-67
2023/08/04 01:07:56;;;;;;;5.13;1.83;;;15.90;99.90;;;;;;5034624;28;20496;-61
2023/08/04 01:10:35;;;;;;;6.18;1.70;;;16.00;99.90;;;;;;5034335;28;20091;-62
2023/08/04 01:13:04;;;;;;;6.78;1.77;;;15.90;99.90;;;;;;5034540;28;20072;-62
2023/08/04 01:15:31;;;;;;;2.80;1.38;;;15.90;99.90;;;;;;5034488;28;20041;-61
2023/08/04 01:17:58;;;;;;;5.13;1.50;;;15.90;99.90;;;;;;5034456;28;20056;-61
2023/08/04 01:20:25;;;;;;;3.03;1.42;;;15.90;99.90;;;;;;5034335;28;20072;-61
2023/08/04 01:22:51;;;;;;;4.03;1.23;;;15.90;99.90;;;;;;5033958;28;20037;-61
2023/08/04 01:25:18;;;;;;;4.43;1.50;;;15.80;99.90;;;;;;5034271;28;20087;-61
2023/08/04 01:27:56;;;;;;;8.27;1.90;;;15.80;99.90;;;;;;5034268;28;20109;-61
2023/08/04 01:30:25;;;;;;;6.25;1.70;;;15.90;99.90;;;;;;5033931;28;20033;-61
2023/08/04 01:32:50;;;;;;;4.70;1.80;;;15.90;99.90;;;;;;5034198;28;20546;-61
2023/08/04 01:35:16;;;;;;;6.53;1.63;;;15.90;99.90;;;;;;5034229;28;20041;-61
2023/08/04 01:37:43;;;;;;;4.28;1.73;;;15.80;99.90;;;;;;5033799;28;20095;-61
2023/08/04 01:40:10;;;;;;;4.68;1.58;;;15.80;99.90;;;;;;5034012;28;20038;-61
2023/08/04 01:42:35;;;;;;;3.92;1.63;;;15.80;99.90;;;;;;5033680;28;20049;-61
2023/08/04 01:45:02;;;;;;;5.35;1.67;;;15.80;99.90;;;;;;5033968;28;20044;-61
2023/08/04 01:47:28;;;;;;;4.88;1.70;;;15.80;99.90;;;;;;5033837;28;20059;-61
2023/08/04 01:49:53;;;;;;;3.38;1.40;;;15.80;99.90;;;;;;5033583;28;20041;-61
2023/08/04 01:52:19;;;;;;;4.30;1.60;;;15.80;99.90;;;;;;5032671;28;20048;-61
2023/08/04 01:54:44;;;;;;;6.07;2.22;;;15.70;99.90;;;;;;5033889;28;20107;-64
2023/08/04 01:57:10;;;;;;;3.05;1.83;;;15.70;99.90;;;;;;5033751;28;20043;-64
2023/08/04 01:59:35;;;;;;;6.85;1.80;;;15.70;99.90;;;;;;5033639;28;20045;-63
2023/08/04 02:02:01;;;;;;;4.60;1.85;;;15.70;99.90;;;;;;5033250;28;20037;-63
2023/08/04 02:04:27;;;;;;;3.38;1.27;;;15.70;99.90;;;;;;5033319;28;20056;-64
2023/08/04 02:06:52;;;;;;;4.57;1.27;;;15.70;99.90;;;;;;5033636;28;20473;-63
2023/08/04 02:09:18;;;;;;;2.20;1.10;;;15.60;99.90;;;;;;5032349;28;20124;-63
2023/08/04 02:11:43;;;;;;;4.63;1.45;;;15.50;99.90;;;;;;5033198;28;20037;-63
2023/08/04 02:14:09;;;;;;;5.35;1.40;;;15.80;99.90;;;;;;5033454;28;20048;-63
2023/08/04 02:16:35;;;;;;;2.10;1.20;;;15.50;99.90;;;;;;5033310;28;20440;-63
2023/08/04 02:19:07;;;;;;;4.03;1.27;;;15.40;99.90;;;;;;5031869;28;20375;-63
2023/08/04 02:21:33;;;;;;;3.58;0.88;;;15.40;99.90;;;;;;5033303;28;20042;-64
2023/08/04 02:23:58;;;;;;;7.88;1.35;;;15.40;99.90;;;;;;5033277;28;20370;-63
2023/08/04 02:26:25;;;;;;;6.97;1.40;;;15.40;99.90;;;;;;5033287;28;20050;-64
2023/08/04 02:28:52;;;;;;;1.65;0.80;;;15.40;99.90;;;;;;5033051;28;20480;-63
2023/08/04 02:31:19;;;;;;;1.73;0.80;;;15.40;99.90;;;;;;5031698;28;20077;-64
2023/08/04 02:33:45;;;;;;;4.03;1.20;;;15.30;99.90;;;;;;5033248;28;20444;-64
2023/08/04 02:36:11;;;;;;;3.30;1.10;;;15.40;99.90;;;;;;5031623;28;20095;-64
2023/08/04 02:38:37;;;;;;;4.00;0.93;;;15.30;99.90;;;;;;5032832;28;20051;-64
2023/08/04 02:41:03;;;;;;;3.70;1.10;;;15.30;99.90;;;;;;5033128;28;20037;-63
2023/08/04 02:43:29;;;;;;;4.43;1.02;;;15.30;99.90;;;;;;5032690;28;20132;-63
2023/08/04 02:45:55;;;;;;;5.70;1.08;;;15.30;99.90;;;;;;5033134;28;20037;-61
2023/08/04 02:48:21;;;;;;;3.97;0.98;;;15.30;99.90;;;;;;5033054;28;20045;-61
2023/08/04 02:50:49;;;;;;;1.70;0.90;;;15.30;99.90;;;;;;5033352;28;20120;-61
2023/08/04 02:53:15;;;;;;;2.63;0.93;;;15.60;99.90;;;;;;5032734;28;20037;-61
2023/08/04 02:55:40;;;;;;;2.65;1.05;;;15.30;99.90;;;;;;5033001;28;20044;-60
2023/08/04 02:58:06;;;;;;;4.13;1.20;;;15.60;99.90;;;;;;5032658;28;20056;-61
2023/08/04 03:00:32;;;;;;;2.40;1.08;;;15.30;99.90;;;;;;5032935;28;20044;-63
2023/08/04 03:02:59;;;;;;;1.92;1.00;;;15.30;99.90;;;;;;5032605;28;20129;-61
2023/08/04 03:05:24;;;;;;;2.97;0.80;;;15.20;99.90;;;;;;5032658;28;20057;-61
2023/08/04 03:07:50;;;;;;;6.65;1.20;;;16.30;99.90;;;;;;5032901;28;20041;-61
2023/08/04 03:10:16;;;;;;;4.88;1.30;;;15.20;99.90;;;;;;5032844;28;20037;-61
2023/08/04 03:12:42;;;;;;;4.07;1.23;;;15.10;99.90;;;;;;5032919;28;20038;-61
2023/08/04 03:15:08;;;;;;;1.65;0.93;;;15.10;99.90;;;;;;5032751;28;20041;-61
2023/08/04 03:17:33;;;;;;;1.05;0.73;;;15.10;99.90;;;;;;5032784;28;20052;-64
2023/08/04 03:19:59;;;;;;;4.20;1.10;;;15.10;99.90;;;;;;5032452;28;20037;-61
2023/08/04 03:22:24;;;;;;;3.58;1.30;;;15.10;99.90;;;;;;5032635;28;20049;-61
2023/08/04 03:24:50;;;;;;;2.45;0.80;;;15.10;99.90;;;;;;5032757;28;20446;-61
2023/08/04 03:27:15;;;;;;;2.58;0.80;;;15.10;99.90;;;;;;5032441;28;20041;-61
2023/08/04 03:29:41;;;;;;;2.72;1.10;;;15.00;99.90;;;;;;5036467;28;20038;-61
2023/08/04 03:32:07;;;;;;;3.95;1.15;;;15.10;99.90;;;;;;5036495;28;20099;-61
2023/08/04 03:34:32;;;;;;;3.35;1.10;;;15.10;99.90;;;;;;5036389;28;20079;-61
2023/08/04 03:36:58;;;;;;;1.92;0.90;;;15.20;99.90;;;;;;5036377;28;20073;-61
2023/08/04 03:39:24;;;;;;;1.17;0.63;;;15.20;99.90;;;;;;5036238;28;20041;-61
2023/08/04 03:41:49;;;;;;;4.38;1.38;;;15.20;99.90;;;;;;5036152;28;20083;-61
2023/08/04 03:44:15;;;;;;;2.22;1.10;;;15.20;99.90;;;;;;5036237;28;20116;-65
2023/08/04 03:46:40;;;;;;;1.30;0.77;;;15.20;99.90;;;;;;5036241;28;20116;-61
2023/08/04 03:49:06;;;;;;;4.18;0.95;;;15.20;99.90;;;;;;5036153;28;20054;-61
2023/08/04 03:51:31;;;;;;;1.45;1.10;;;15.20;99.90;;;;;;5036096;28;20087;-61
2023/08/04 03:53:57;;;;;;;5.40;1.02;;;15.10;99.90;;;;;;5036012;28;20424;-61
2023/08/04 03:56:23;;;;;;;1.92;0.82;;;15.20;99.90;;;;;;5036070;28;20038;-62
2023/08/04 03:58:48;;;;;;;3.17;1.10;;;15.20;99.90;;;;;;5035971;28;20497;-61
2023/08/04 04:01:14;;;;;;;3.88;1.13;;;15.20;99.90;;;;;;5035564;28;20045;-61
2023/08/04 04:03:39;;;;;;;4.90;1.08;;;15.20;99.90;;;;;;5035668;28;20045;-61
2023/08/04 04:06:05;;;;;;;1.95;1.00;;;15.20;99.90;;;;;;5035858;28;20045;-61
2023/08/04 04:08:30;;;;;;;4.15;1.15;;;15.20;99.90;;;;;;5035743;28;20042;-61
2023/08/04 04:10:56;;;;;;;3.75;1.33;;;15.20;99.90;;;;;;5035696;28;20493;-61
2023/08/04 04:13:23;;;;;;;2.50;0.88;;;15.20;99.90;;;;;;5034225;28;20551;-61
2023/08/04 04:15:48;;;;;;;1.85;1.15;;;15.20;99.90;;;;;;5035744;28;20554;-58
2023/08/04 04:18:14;;;;;;;3.95;1.15;;;15.20;99.90;;;;;;5035567;28;20069;-59
2023/08/04 04:20:39;;;;;;;2.28;1.15;;;15.20;99.90;;;;;;5035539;28;20473;-59
2023/08/04 04:23:05;;;;;;;3.35;1.00;;;15.40;99.90;;;;;;5035191;28;20041;-58
2023/08/04 04:25:30;;;;;;;2.22;0.82;;;15.30;99.90;;;;;;5035407;28;20046;-58
2023/08/04 04:27:56;;;;;;;2.00;1.00;;;15.70;99.90;;;;;;5035426;28;20041;-58
2023/08/04 04:30:22;;;;;;;1.80;0.77;;;15.40;99.90;;;;;;5035330;28;20535;-58
2023/08/04 04:32:47;;;;;;;3.65;1.45;;;15.30;99.90;;;;;;5035124;28;20501;-58
2023/08/04 04:35:13;;;;;;;2.28;0.77;;;15.30;99.90;;;;;;5035027;28;20041;-59
2023/08/04 04:37:39;;;;;;;2.42;1.10;;;15.40;99.90;;;;;;5035209;28;20073;-59
2023/08/04 04:40:05;;;;;;;3.22;1.13;;;15.40;99.90;;;;;;5033973;28;20052;-58
2023/08/04 04:42:33;;;;;;;4.25;0.80;;;15.40;99.90;;;;;;5035165;28;20065;-58
2023/08/04 04:45:00;;;;;;;1.38;0.80;;;15.40;99.90;;;;;;5034810;28;20049;-58
2023/08/04 04:47:26;;;;;;;1.20;0.63;;;15.40;99.90;;;;;;5035099;28;20038;-58
2023/08/04 04:49:52;;;;;;;1.42;0.90;;;15.40;99.90;;;;;;5034703;28;20037;-58
2023/08/04 04:52:38;;;;;;;2.10;0.90;;;15.40;99.90;;;;;;5034924;28;20075;-58
2023/08/04 04:55:05;;;;;;;1.30;0.63;;;15.70;99.90;;;;;;5034688;28;20041;-58
2023/08/04 04:57:31;;;;;;;1.98;0.90;;;15.50;99.90;;;;;;5034794;28;20374;-58
2023/08/04 04:59:56;;;;;;;2.63;1.10;;;15.50;99.90;;;;;;5034551;28;20044;-58
2023/08/04 05:02:22;;;;;;;1.88;0.93;;;16.00;99.90;;;;;;5034708;28;20037;-58
2023/08/04 05:04:48;;;;;;;3.85;0.90;;;15.50;99.90;;;;;;5033063;28;20603;-58
2023/08/04 05:07:14;;;;;;;1.10;0.70;;;15.50;99.90;;;;;;5034842;28;20092;-58
2023/08/04 05:09:41;;;;;;;2.53;0.70;;;15.50;99.90;;;;;;5034406;28;20060;-58
2023/08/04 05:12:07;;;;;;;2.22;0.80;;;15.50;99.90;;;;;;5034557;28;20120;-58
2023/08/04 05:14:35;;;;;;;2.90;0.88;;;15.50;99.90;;;;;;5034524;28;20091;-58
2023/08/04 05:17:01;;;;;;;1.70;0.80;;;15.40;99.90;;;;;;5034592;28;20039;-58
2023/08/04 05:19:27;;;;;;;2.25;1.25;;;15.40;99.90;;;;;;5034461;28;20056;-58
2023/08/04 05:21:52;;;;;;;2.97;1.35;;;15.40;99.90;;;;;;5034041;28;20454;-59
2023/08/04 05:24:18;;;;;;;3.03;0.90;;;15.40;99.90;;;;;;5034347;28;20038;-64
2023/08/04 05:26:43;;;;;;;3.92;1.17;;;15.40;99.90;;;;;;5034358;28;20116;-58
2023/08/04 05:29:09;;;;;;;4.90;1.17;;;15.40;99.90;;;;;;5034239;28;20037;-59
2023/08/04 05:31:34;;;;;;;2.05;0.80;;;15.50;99.90;;;;;;5034300;28;20496;-58
2023/08/04 05:34:01;;;;;;;4.03;1.13;;;16.00;99.90;;;;;;5034145;28;20037;-60
2023/08/04 05:36:27;;;;;;;1.42;0.95;;;15.50;99.90;;;;;;5032855;28;20053;-58
2023/08/04 05:38:53;;;;;;;2.97;1.25;;;15.50;99.90;;;;;;5034079;28;20041;-58
2023/08/04 05:41:18;;;;;;;3.03;1.13;;;15.60;99.90;;;;;;5033996;28;20148;-58
2023/08/04 05:43:44;;;;;;;2.45;0.95;;;15.70;99.90;;;;;;5033952;28;20033;-59
2023/08/04 05:46:12;;;;;;;2.17;1.08;;;15.70;99.90;;;;;;5033648;28;20127;-58
2023/08/04 05:48:38;;;;;;;3.28;1.00;;;15.70;99.90;;;;;;5033845;28;20063;-58
2023/08/04 05:51:04;;;;;;;4.05;1.60;;;15.80;99.90;;;;;;5033502;28;20029;-58
2023/08/04 05:53:30;;;;;;;3.05;1.38;;;16.40;99.90;;;;;;5033805;28;20041;-58
2023/08/04 05:55:55;;;;;;;3.45;1.10;;;16.00;99.90;;;;;;5033756;28;20045;-58
2023/08/04 05:58:21;;;;;;;2.30;1.33;;;15.90;99.90;;;;;;5033711;28;20040;-58
2023/08/04 06:00:46;;;;;;;4.13;1.10;;;15.90;99.90;;;;;;5033659;28;20485;-58
2023/08/04 06:03:12;;;;;;;1.88;1.10;;;15.90;99.90;;;;;;5033669;28;20080;-61
2023/08/04 06:05:38;;;;;;;2.58;1.30;;;15.90;99.90;;;;;;5033242;28;20181;-60
2023/08/04 06:08:04;;;;;;;3.28;1.17;;;16.00;99.90;;;;;;5033635;28;20033;-61
2023/08/04 06:10:29;;;;;;;4.35;1.23;;;16.00;99.90;;;;;;5033551;28;20381;-61
2023/08/04 06:12:55;;;;;;;1.92;1.23;;;16.10;99.90;;;;;;5033557;28;20474;-61
2023/08/04 06:15:22;;;;;;;2.53;1.08;;;16.10;99.90;;;;;;5033456;28;20045;-61
2023/08/04 06:17:48;;;;;;;5.15;1.55;;;16.10;99.90;;;;;;5032049;28;20374;-61
2023/08/04 06:20:13;;;;;;;5.68;1.45;;;16.10;99.90;;;;;;5033447;28;20067;-61
2023/08/04 06:22:39;;;;;;;4.07;1.42;;;16.20;99.90;;;;;;5033304;28;20051;-61
2023/08/04 06:25:05;;;;;;;4.40;1.35;;;16.90;99.90;;;;;;5033365;28;20465;-60
2023/08/04 06:27:32;;;;;;;2.97;1.40;;;16.30;99.90;;;;;;5033266;28;20030;-61
2023/08/04 06:29:59;;;;;;;2.20;1.35;;;16.30;99.90;;;;;;5033209;28;20037;-61
2023/08/04 06:32:25;;;;;;;2.08;1.30;;;16.30;99.90;;;;;;5033237;28;20084;-61
2023/08/04 06:34:51;;;;;;;3.15;1.30;;;16.30;99.90;;;;;;5033236;28;20428;-61
2023/08/04 06:37:16;;;;;;;2.55;1.23;;;16.40;99.90;;;;;;5033246;28;20040;-61
2023/08/04 06:39:42;;;;;;;2.42;1.27;;;16.50;99.90;;;;;;5033182;28;20080;-61
2023/08/04 06:42:08;;;;;;;2.13;1.20;;;16.90;99.90;;;;;;5033103;28;20040;-61
2023/08/04 06:44:33;;;;;;;3.05;1.65;;;16.50;99.90;;;;;;5032722;28;20041;-61
2023/08/04 06:46:59;;;;;;;3.95;1.15;;;16.60;99.90;;;;;;5033112;28;20038;-62
2023/08/04 06:49:25;;;;;;;4.57;1.02;;;16.60;99.90;;;;;;5033040;28;20038;-61
2023/08/04 06:51:50;;;;;;;2.60;1.20;;;16.70;99.90;;;;;;5032749;28;20029;-61
2023/08/04 06:54:16;;;;;;;2.63;1.30;;;16.70;99.90;;;;;;5032934;28;20497;-61
2023/08/04 06:56:42;;;;;;;2.95;1.42;;;16.70;99.90;;;;;;5033017;28;20112;-62
2023/08/04 06:59:07;;;;;;;2.83;1.35;;;16.60;99.90;;;;;;5032955;28;20234;-61
2023/08/04 07:01:33;;;;;;;4.47;1.42;;;16.80;99.90;;;;;;5032915;28;20040;-61
2023/08/04 07:03:59;;;;;;;4.32;1.17;;;16.80;99.90;;;;;;5035211;28;20087;-61
2023/08/04 07:06:24;;;;;;;5.30;1.40;;;17.30;99.90;;;;;;5036962;28;20087;-61
2023/08/04 07:08:50;;;;;;;2.53;1.20;;;16.90;99.90;;;;;;5036740;28;20041;-71
2023/08/04 07:11:17;;;;;;;5.95;1.48;;;16.90;99.90;;;;;;5036874;28;20428;-70
2023/08/04 07:13:44;;;;;;;2.33;1.27;;;17.70;99.90;;;;;;5036866;28;20050;-71
2023/08/04 07:16:10;;;;;;;4.15;1.00;;;17.00;99.90;;;;;;5036770;28;20042;-72
2023/08/04 07:18:36;;;;;;;3.83;1.45;;;17.00;99.90;;;;;;5036769;28;20095;-72
2023/08/04 07:21:10;;;;;;;2.30;1.20;;;17.10;99.90;;;;;;5035468;28;20049;-73
2023/08/04 07:23:36;;;;;;;2.25;1.25;;;17.20;99.90;;;;;;5036562;28;20041;-72
2023/08/04 07:26:03;;;;;;;4.93;1.45;;;17.30;99.90;;;;;;5036635;28;20550;-71
2023/08/04 07:28:33;;;;;;;4.60;1.20;;;17.50;99.90;;;;;;5018786;28;20041;-71
2023/08/04 07:31:06;;;;;;;2.25;1.25;;;17.40;99.90;;;;;;5036472;28;20048;-71
2023/08/04 07:33:31;;;;;;;3.33;1.55;;;17.50;99.90;;;;;;5036430;28;20045;-71
2023/08/04 07:35:58;;;;;;;5.13;1.25;;;17.50;99.90;;;;;;5036432;28;20605;-71
2023/08/04 07:38:27;;;;;;;2.08;1.20;;;17.50;99.90;;;;;;5036369;28;20091;-70
2023/08/04 07:40:52;;;;;;;10.50;1.73;;;17.50;99.90;;;;;;5036292;28;20048;-71
2023/08/04 07:43:18;;;;;;;2.03;1.30;;;17.50;99.90;;;;;;5034710;28;20493;-71
2023/08/04 07:45:44;;;;;;;3.03;1.40;;;17.50;99.90;;;;;;5035989;28;20562;-71
2023/08/04 07:48:10;;;;;;;4.40;1.50;;;17.60;99.90;;;;;;5036302;28;20075;-71
2023/08/04 07:50:39;;;;;;;2.72;1.17;;;17.50;99.90;;;;;;5036071;28;20048;-71
2023/08/04 07:53:05;;;;;;;2.13;1.20;;;17.60;99.90;;;;;;5036103;28;20096;-72
2023/08/04 07:55:36;;;;;;;3.05;1.45;;;17.70;99.90;;;;;;5035756;28;20441;-73
2023/08/04 07:58:05;;;;;;;4.13;1.58;;;17.80;99.90;;;;;;5036002;28;20084;-73
2023/08/04 08:00:31;;;;;;;4.25;1.42;;;17.70;99.90;;;;;;5035937;28;20045;-71
2023/08/04 08:02:56;;;;;;;4.68;1.80;;;17.80;99.90;;;;;;5035751;28;20121;-71
2023/08/04 08:05:22;;;;;;;5.97;1.70;;;17.90;99.90;;;;;;5035446;28;20089;-71
2023/08/04 08:07:48;;;;;;;2.88;1.52;;;;;;;;;;5035846;28;20116;-70
2023/08/04 08:10:14;;;;;;;3.40;1.40;;;18.00;99.90;;;;;;5035811;28;20045;-71
2023/08/04 08:12:39;;;;;;;1.73;1.27;;;18.10;99.90;;;;;;5035385;28;20042;-71
2023/08/04 08:15:05;;;;;;;2.92;1.70;;;18.10;99.90;;;;;;5034046;28;20088;-71
2023/08/04 08:17:32;;;;;;;3.20;1.30;;;18.10;99.90;;;;;;5035709;28;20462;-63
2023/08/04 08:19:57;;;;;;;5.68;1.20;;;18.40;99.90;;;;;;5035526;28;20033;-63
2023/08/04 08:22:23;;;;;;;4.40;1.33;;;18.20;99.90;;;;;;5035373;28;20370;-63
2023/08/04 08:24:56;;;;;;;2.83;1.33;;;18.20;99.90;;;;;;5035420;28;20034;-64
2023/08/04 08:27:22;;;;;;;2.88;1.10;;;18.40;99.90;;;;;;5035474;28;20030;-63
2023/08/04 08:29:53;;;;;;;4.95;1.60;;;;;;;;;;5035420;28;20037;-63
2023/08/04 08:32:19;;;;;;;3.28;1.58;;;;;;;;;;5035400;28;20089;-63
2023/08/04 08:34:45;;;;;;;4.00;1.48;;;;;;;;;;5035305;28;20049;-64
2023/08/04 08:37:11;;;;;;;2.95;1.20;;;;;;;;;;5035306;28;20129;-63
2023/08/04 08:39:37;;;;;;;5.05;1.40;;;;;;;;;;5035207;28;20045;-64
2023/08/04 08:42:03;;;;;;;3.63;1.45;;;;;;;;;;5035167;28;20478;-64
2023/08/04 08:44:30;;;;;;;4.28;1.13;;;;;;;;;;5033598;28;20044;-64
2023/08/04 08:46:56;;;;;;;3.05;1.42;;;;;;;;;;5035129;28;20095;-64
2023/08/04 08:49:27;;;;;;;4.60;1.70;;;;;;;;;;5035042;28;20124;-64
2023/08/04 08:51:54;;;;;;;7.28;1.60;;;;;;;;;;5034651;28;20033;-64
2023/08/04 08:54:20;;;;;;;4.85;1.35;;;;;;;;;;5033684;28;20049;-64
2023/08/04 08:56:47;;;;;;;3.72;1.30;;;;;;;;;;5034608;28;20091;-64
2023/08/04 08:59:13;;;;;;;2.55;1.63;;;;;;;;;;5035020;28;20044;-64
2023/08/04 09:01:39;;;;;;;2.65;1.63;;;;;;;;;;5034564;28;20041;-63
2023/08/04 09:04:05;;;;;;;3.35;1.30;;;;;;;;;;5034526;28;20046;-64
2023/08/04 09:06:31;;;;;;;3.58;1.63;;;;;;;;;;5034427;28;20046;-64
2023/08/04 09:09:02;;;;;;;4.18;1.60;;;;;;;;;;5034717;28;20045;-64
2023/08/04 09:11:28;;;;;;;;;;;;;;;;;;5034786;28;20496;-64
2023/08/04 09:13:54;;;;;;;2.15;1.10;;;;;;;;;;5034628;28;19917;-64
2023/08/04 09:16:31;;;;;;;5.43;1.50;;;;;;;;;;5034528;28;20042;-63
2023/08/04 09:19:03;;;;;;;3.28;1.08;;;18.40;97.00;;;;;;5034499;28;20492;-63
2023/08/04 09:21:29;;;;;;;4.40;1.20;;;18.40;99.60;;;;;;5034142;28;20044;-64
2023/08/04 09:23:54;;;;;;;3.08;1.30;;;18.60;99.90;;;;;;5034043;28;20034;-64
2023/08/04 09:26:20;;;;;;;4.20;1.35;;;18.80;99.90;;;;;;5032135;28;20050;-65
2023/08/04 09:29:01;;;;;;;2.75;1.08;;;19.00;97.50;;;;;;5034200;28;20040;-61
2023/08/04 09:31:34;;;;;;;3.30;1.00;;;;;;;;;;5034264;28;20099;-65
2023/08/04 09:34:02;;;;;;;4.55;1.38;;;19.60;84.60;;;;;;5034215;28;20045;-61
2023/08/04 09:36:28;;;;;;;1.98;1.08;;;19.60;93.70;;;;;;5034115;28;20401;-62
2023/08/04 09:39:03;;;;;;;3.00;1.23;;;19.50;89.00;;;;;;5033808;28;20037;-62
2023/08/04 09:41:36;;;;;;;1.65;0.73;;;19.30;82.10;;;;;;5034111;28;20034;-61
2023/08/04 09:44:06;;;;;;;2.25;1.00;;;19.10;93.80;;;;;;5033982;28;20038;-60
2023/08/04 09:46:37;;;;;;;1.20;0.57;;;18.90;95.60;;;;;;5033640;28;20125;-61
2023/08/04 09:49:03;;;;;;;1.33;0.63;;;18.60;97.30;;;;;;5033679;28;20037;-61
2023/08/04 09:51:28;;;;;;;1.65;0.60;;;19.00;99.60;;;;;;5033914;28;20474;-61
2023/08/04 09:53:54;;;;;;;2.17;0.60;;;18.50;99.90;;;;;;5033548;28;20077;-61
2023/08/04 09:56:23;;;;;;;2.00;0.70;;;18.40;99.90;;;;;;5033530;28;20044;-61
2023/08/04 09:58:49;;;;;;;4.75;1.08;;;18.40;99.90;;;;;;5032208;28;20041;-61
2023/08/04 10:01:17;;;;;;;2.67;1.00;;;18.30;99.90;;;;;;5032411;28;20040;-61
2023/08/04 10:03:48;;;;;;;3.85;1.33;;;18.30;99.90;;;;;;5033458;28;20098;-61
2023/08/04 10:06:15;;;;;;;1.77;0.80;;;18.20;99.90;;;;;;5033666;28;20037;-61
2023/08/04 10:08:41;;;;;;;4.28;1.10;;;18.30;99.90;;;;;;5033686;28;20382;-61
2023/08/04 10:11:07;;;;;;;3.42;1.35;;;18.40;99.90;;;;;;5033516;28;20048;-61
2023/08/04 10:13:39;;;;;;;6.22;1.20;;;18.70;99.90;;;;;;5033503;28;20052;-61
2023/08/04 10:16:07;;;;;;;3.72;1.30;;;18.30;99.90;;;;;;5033261;28;20033;-61
2023/08/04 10:18:46;;;;;;;2.08;1.23;;;18.70;99.90;;;;;;5033461;28;20041;-61
2023/08/04 10:21:12;;;;;;;4.60;1.35;;;18.80;99.90;;;;;;5033408;28;20113;-61
2023/08/04 10:23:38;;;;;;;1.77;1.00;;;19.00;99.90;;;;;;5033228;28;20592;-62
2023/08/04 10:26:03;;;;;;;5.95;1.30;;;19.20;99.90;;;;;;5033286;28;20489;-61
2023/08/04 10:28:32;;;;;;;3.17;1.30;;;19.30;99.90;;;;;;5033245;28;20504;-61
2023/08/04 10:31:10;;;;;;;3.72;0.93;;;19.20;99.90;;;;;;5033298;28;20049;-61
2023/08/04 10:33:36;;;;;;;2.72;1.23;;;19.10;99.90;;;;;;5033243;28;20045;-61
2023/08/04 10:36:07;;;;;;;3.72;1.58;;;18.90;99.90;;;;;;5032933;28;20507;-62
2023/08/04 10:38:46;;;;;;;1.48;0.98;;;18.70;99.90;;;;;;5032983;28;20045;-59
2023/08/04 10:41:12;;;;;;;2.15;1.02;;;18.60;99.90;;;;;;5033245;28;20038;-58
2023/08/04 10:43:39;;;;;;;5.95;1.40;;;18.50;99.90;;;;;;5032981;28;20044;-59
2023/08/04 10:46:10;;;;;;;2.28;1.52;;;18.90;99.90;;;;;;5033135;28;20041;-59
2023/08/04 10:48:39;;;;;;;2.47;1.35;;;18.50;99.90;;;;;;5033045;28;20038;-59
2023/08/04 10:51:06;;;;;;;3.22;1.40;;;18.60;99.90;;;;;;5032870;28;20397;-59
2023/08/04 10:53:32;;;;;;;4.20;1.40;;;19.00;99.90;;;;;;5033055;28;20088;-59
2023/08/04 10:55:59;;;;;;;3.97;1.30;;;18.90;99.90;;;;;;5032983;28;20065;-59
2023/08/04 10:58:27;;;;;;;5.95;1.45;;;19.20;99.90;;;;;;5032999;28;20052;-59
2023/08/04 11:00:53;;;;;;;3.70;1.30;;;19.20;99.40;;;;;;5032757;28;20440;-59
2023/08/04 11:03:26;;;;;;;3.63;1.30;;;18.90;97.40;;;;;;5032597;28;20083;-59
2023/08/04 11:05:53;;;;;;;5.15;1.50;;;19.20;98.40;;;;;;5014842;28;20064;-58
2023/08/04 11:08:20;;;;;;;7.43;1.80;;;19.10;95.80;;;;;;5032889;28;20046;-59
2023/08/04 11:10:53;;;;;;;3.25;1.45;;;19.20;97.50;;;;;;5032540;28;20041;-59
2023/08/04 11:13:20;;;;;;;5.80;1.75;;;19.30;97.20;;;;;;5032836;28;20389;-59
2023/08/04 11:15:48;;;;;;;3.00;1.25;;;19.50;97.70;;;;;;5032822;28;20404;-61
2023/08/04 11:18:16;;;;;;;6.57;1.58;;;19.60;96.80;;;;;;5032826;28;20444;-58
2023/08/04 11:20:42;;;;;;;3.72;1.58;;;19.60;90.50;;;;;;5032922;28;20037;-64
2023/08/04 11:23:12;;;;;;;2.70;1.48;;;19.50;91.40;;;;;;5032420;28;20088;-63
2023/08/04 11:25:39;;;;;;;4.07;1.70;;;19.50;92.30;;;;;;5032652;28;20121;-64
2023/08/04 11:28:06;;;;;;;5.93;1.48;;;19.40;95.10;;;;;;5032434;28;20040;-63
2023/08/04 11:30:35;;;;;;;6.50;1.55;;;19.40;96.30;;;;;;5032693;28;20116;-63
2023/08/04 11:33:02;;;;;;;3.08;1.20;;;19.40;96.70;;;;;;5032629;28;20033;-63
2023/08/04 11:35:32;;;;;;;3.50;1.55;;;19.40;96.90;;;;;;5032692;28;20041;-64
2023/08/04 11:37:59;;;;;;;2.37;1.17;;;19.50;97.40;;;;;;5032614;28;20041;-63
2023/08/04 11:40:26;;;;;;;5.15;1.30;;;19.60;95.60;;;;;;5032634;28;20065;-63
2023/08/04 11:42:52;;;;;;;2.78;1.27;;;19.80;95.60;;;;;;5030858;28;20049;-63
2023/08/04 11:45:18;;;;;;;3.92;1.33;;;20.10;95.80;;;;;;5032583;28;20038;-63
2023/08/04 11:47:45;;;;;;;3.88;1.10;;;19.80;91.50;;;;;;5032264;28;20037;-63
2023/08/04 11:50:10;;;;;;;3.22;1.17;;;19.60;92.40;;;;;;5035463;28;20041;-58
2023/08/04 11:52:39;;;;;;;2.90;1.00;;;19.60;92.90;;;;;;5036038;28;20512;-58
2023/08/04 11:55:06;;;;;;;3.92;0.73;;;19.70;91.90;;;;;;5034817;28;20059;-58
2023/08/04 11:57:32;;;;;;;3.42;1.30;;;19.80;88.80;;;;;;5035999;28;20037;-59
2023/08/04 11:59:57;;;;;;;2.55;1.08;;;20.10;91.40;;;;;;5034500;28;20460;-59
2023/08/04 12:02:24;;;;;;;2.95;1.00;;;19.90;90.50;;;;;;5035825;28;20067;-59
2023/08/04 12:05:12;;;;;;;4.15;1.42;;;19.90;87.50;;;;;;5035486;28;20445;-59
2023/08/04 12:07:37;;;;;;;3.13;1.50;;;19.80;64.60;;;;;;5034268;28;20098;-58
2023/08/04 12:10:05;;;;;;;5.13;1.10;;;19.80;85.60;;;;;;5035790;28;20473;-59
2023/08/04 12:12:38;;;;;;;5.68;1.00;;;19.70;85.30;;;;;;5035771;28;20387;-58
2023/08/04 12:15:04;;;;;;;3.15;1.13;;;19.60;81.80;;;;;;5035709;28;20041;-58
2023/08/04 12:17:38;;;;;;;3.38;1.05;;;19.50;86.20;;;;;;5035421;28;20072;-59
2023/08/04 12:20:04;;;;;;;2.42;0.85;;;19.80;87.90;;;;;;5035323;28;20081;-59
2023/08/04 12:22:33;;;;;;;4.07;1.27;;;19.30;90.90;;;;;;5035364;28;20096;-59
2023/08/04 12:24:59;;;;;;;5.57;0.90;;;19.10;91.30;;;;;;5035521;28;20398;-58
2023/08/04 12:27:24;;;;;;;1.90;1.15;;;19.10;92.10;;;;;;5035461;28;20033;-59
2023/08/04 12:29:50;;;;;;;4.75;1.00;;;19.00;91.20;;;;;;5035189;28;20546;-58
2023/08/04 12:32:15;;;;;;;1.45;0.95;;;19.40;96.90;;;;;;5035116;28;20041;-61
2023/08/04 12:34:41;;;;;;;3.22;1.25;;;19.70;99.90;;;;;;5035350;28;20095;-59
2023/08/04 12:37:07;;;;;;;2.58;0.88;;;19.30;99.90;;;;;;5035296;28;20052;-58
2023/08/04 12:39:32;;;;;;;2.65;1.00;;;;;;;;;;5035010;28;20039;-59
2023/08/04 12:41:58;;;;;;;1.55;0.85;;;19.60;86.70;;;;;;5034907;28;20117;-59
2023/08/04 12:44:24;;;;;;;1.88;0.85;;;19.80;86.70;;;;;;5035111;28;20037;-58
2023/08/04 12:46:50;;;;;;;1.95;0.88;;;;;;;;;;5033901;28;20527;-58
2023/08/04 12:49:15;;;;;;;3.38;0.90;;;20.40;64.90;;;;;;5035132;28;20076;-58
2023/08/04 12:51:41;;;;;;;1.90;1.02;;;20.50;50.60;;;;;;5035073;28;20081;-59
2023/08/04 12:54:06;;;;;;;2.03;0.80;;;21.10;58.90;;;;;;5035022;28;20504;-58